Time;durP1;ratioP1;P1;durP2;ratioP2;P2;SDS_P1;SDS_P2;PMS_P1;PMS_P2;Temp;Humidity;BMP_temperature;BMP_pressure;BME280_temperature;BME280_humidity;BME280_pressure;Samples;Min_cycle;Max_cycle;Signal;HPM_P1;HPM_P2
2024/01/29 00:02:02;;;;;;;3.70;1.60;;;4.00;99.90;;;;;;4959496;28;20431;-80
2024/01/29 00:04:28;;;;;;;6.32;2.05;;;;;;;;;;4960738;29;20031;-80
2024/01/29 00:06:54;;;;;;;5.03;1.73;;;4.00;99.90;;;;;;4959366;29;20034;-80
2024/01/29 00:09:20;;;;;;;6.10;2.47;;;3.90;99.90;;;;;;4958844;29;20440;-80
2024/01/29 00:11:46;;;;;;;6.18;1.73;;;4.10;99.90;;;;;;4959331;28;20046;-80
2024/01/29 00:14:11;;;;;;;6.72;2.50;;;4.20;99.90;;;;;;4959177;29;20031;-80
2024/01/29 00:16:37;;;;;;;7.97;2.22;;;3.90;99.90;;;;;;4958795;29;20522;-80
2024/01/29 00:19:03;;;;;;;5.68;2.20;;;6.50;99.90;;;;;;4959703;29;20027;-80
2024/01/29 00:21:29;;;;;;;4.38;2.03;;;3.90;99.90;;;;;;4961659;29;20027;-80
2024/01/29 00:23:56;;;;;;;7.38;2.40;;;3.90;99.90;;;;;;4961155;29;20101;-80
2024/01/29 00:26:22;;;;;;;6.85;2.05;;;3.90;99.90;;;;;;4960105;29;20022;-80
2024/01/29 00:28:47;;;;;;;5.25;2.20;;;3.80;99.90;;;;;;4960095;29;20015;-80
2024/01/29 00:31:14;;;;;;;4.60;1.80;;;3.80;99.90;;;;;;4960146;29;20031;-80
2024/01/29 00:33:39;;;;;;;5.15;2.17;;;4.00;99.90;;;;;;4960314;29;20026;-80
2024/01/29 00:36:05;;;;;;;6.97;2.40;;;3.80;99.90;;;;;;4960761;29;20027;-80
2024/01/29 00:38:31;;;;;;;5.20;1.85;;;3.80;99.90;;;;;;4961587;29;20031;-80
2024/01/29 00:40:57;;;;;;;8.38;2.20;;;3.80;99.90;;;;;;4963009;29;20159;-80
2024/01/29 00:43:23;;;;;;;4.93;2.13;;;6.60;99.90;;;;;;4960904;29;20067;-80
2024/01/29 00:45:48;;;;;;;6.70;2.00;;;3.90;99.90;;;;;;4962248;29;20030;-80
2024/01/29 00:48:14;;;;;;;7.82;2.80;;;3.90;99.90;;;;;;4961459;29;20031;-80
2024/01/29 00:50:39;;;;;;;7.82;2.30;;;3.80;99.90;;;;;;4963096;29;20019;-80
2024/01/29 00:53:05;;;;;;;4.47;1.90;;;3.90;99.90;;;;;;4961946;29;20063;-80
2024/01/29 00:55:31;;;;;;;7.65;2.30;;;4.00;99.90;;;;;;4961471;29;20026;-80
2024/01/29 00:57:57;;;;;;;5.97;1.98;;;4.00;99.90;;;;;;4961261;29;20027;-80
2024/01/29 01:00:22;;;;;;;6.40;2.03;;;4.00;99.90;;;;;;4960954;29;20023;-80
2024/01/29 01:02:48;;;;;;;4.38;2.10;;;4.00;99.90;;;;;;4960332;29;20030;-80
2024/01/29 01:05:14;;;;;;;7.30;2.42;;;4.00;99.90;;;;;;4960382;29;20035;-80
2024/01/29 01:07:39;;;;;;;7.88;2.17;;;4.00;99.90;;;;;;4961723;29;20019;-79
2024/01/29 01:10:06;;;;;;;5.95;2.47;;;6.00;99.90;;;;;;4959730;29;20138;-79
2024/01/29 01:12:32;;;;;;;6.38;2.60;;;4.00;99.90;;;;;;4960614;29;20015;-80
2024/01/29 01:14:58;;;;;;;5.53;2.08;;;3.90;99.90;;;;;;4960527;29;20122;-80
2024/01/29 01:17:23;;;;;;;6.65;2.50;;;3.90;99.90;;;;;;4960315;29;20537;-80
2024/01/29 01:19:51;;;;;;;8.73;2.33;;;5.70;99.90;;;;;;4962145;29;20038;-80
2024/01/29 01:22:16;;;;;;;7.63;2.53;;;3.90;99.90;;;;;;4961766;28;20025;-80
2024/01/29 01:24:42;;;;;;;9.23;1.70;;;3.90;99.90;;;;;;4963767;29;20023;-80
2024/01/29 01:27:07;;;;;;;6.30;1.80;;;3.90;99.90;;;;;;4963333;29;20015;-80
2024/01/29 01:29:33;;;;;;;6.47;2.10;;;3.80;99.90;;;;;;4963867;29;20077;-80
2024/01/29 01:31:59;;;;;;;6.47;1.83;;;3.80;99.90;;;;;;4963278;29;20498;-80
2024/01/29 01:34:24;;;;;;;8.52;1.85;;;4.70;99.90;;;;;;4966736;29;20034;-80
2024/01/29 01:36:50;;;;;;;7.20;2.42;;;3.20;99.90;;;;;;4965612;29;20027;-81
2024/01/29 01:39:15;;;;;;;8.43;2.28;;;3.60;99.90;;;;;;4966739;29;20057;-81
2024/01/29 01:41:48;;;;;;;6.00;1.98;;;3.60;99.90;;;;;;4966779;28;20099;-81
2024/01/29 01:44:14;;;;;;;5.88;2.10;;;3.60;99.90;;;;;;4966983;29;20027;-81
2024/01/29 01:46:40;;;;;;;5.95;2.17;;;3.50;99.90;;;;;;4965594;29;20110;-81
2024/01/29 01:49:06;;;;;;;4.80;2.05;;;3.50;99.90;;;;;;4967479;29;20059;-81
2024/01/29 01:51:32;;;;;;;7.35;1.75;;;3.50;99.90;;;;;;4966869;29;20053;-81
2024/01/29 01:54:00;;;;;;;8.00;2.50;;;3.50;99.90;;;;;;4968006;29;20020;-81
2024/01/29 01:56:27;;;;;;;6.33;1.90;;;3.50;99.90;;;;;;4966975;29;20381;-81
2024/01/29 01:58:54;;;;;;;6.22;1.80;;;3.70;99.90;;;;;;4967544;28;20059;-81
2024/01/29 02:01:20;;;;;;;5.72;1.65;;;3.40;99.90;;;;;;4967237;28;20031;-81
2024/01/29 02:03:46;;;;;;;2.42;1.60;;;3.40;99.90;;;;;;4967722;29;20024;-81
2024/01/29 02:06:12;;;;;;;5.38;2.15;;;3.30;99.90;;;;;;4965345;29;20023;-81
2024/01/29 02:08:38;;;;;;;8.60;2.28;;;3.30;99.90;;;;;;4965420;29;20019;-81
2024/01/29 02:11:04;;;;;;;5.65;1.50;;;3.30;99.90;;;;;;4965906;29;20031;-81
2024/01/29 02:13:30;;;;;;;3.67;1.50;;;;;;;;;;4965000;29;20031;-81
2024/01/29 02:15:56;;;;;;;2.72;1.52;;;3.20;99.90;;;;;;4965659;28;20031;-81
2024/01/29 02:18:22;;;;;;;8.63;2.28;;;3.80;99.90;;;;;;4964210;29;20162;-81
2024/01/29 02:20:49;;;;;;;3.78;1.90;;;;;;;;;;4964148;29;20019;-81
2024/01/29 02:23:14;;;;;;;6.43;2.28;;;3.30;99.90;;;;;;4964047;29;20086;-81
2024/01/29 02:25:40;;;;;;;5.90;2.13;;;3.30;99.90;;;;;;4965542;29;20069;-81
2024/01/29 02:28:06;;;;;;;3.80;1.25;;;3.20;99.90;;;;;;4964269;29;20546;-81
2024/01/29 02:30:31;;;;;;;6.53;2.42;;;6.50;99.90;;;;;;4964816;29;20020;-81
2024/01/29 02:32:57;;;;;;;7.32;2.05;;;3.50;99.90;;;;;;4965216;29;20026;-81
2024/01/29 02:35:23;;;;;;;6.70;2.35;;;3.30;99.90;;;;;;4965217;28;20023;-81
2024/01/29 02:37:48;;;;;;;5.47;1.92;;;3.40;99.90;;;;;;4964539;28;20078;-81
2024/01/29 02:40:14;;;;;;;7.15;1.77;;;3.50;99.90;;;;;;4965821;29;20094;-81
2024/01/29 02:42:40;;;;;;;5.78;2.13;;;3.50;99.90;;;;;;4965506;28;20027;-81
2024/01/29 02:45:06;;;;;;;4.82;1.75;;;3.40;99.90;;;;;;4965925;29;20024;-81
2024/01/29 02:47:32;;;;;;;4.82;2.00;;;3.50;99.90;;;;;;4965678;29;20023;-81
2024/01/29 02:49:58;;;;;;;3.85;1.77;;;3.50;99.90;;;;;;4967497;29;20058;-81
2024/01/29 02:52:24;;;;;;;3.42;1.50;;;3.40;99.90;;;;;;4966714;29;20030;-81
2024/01/29 02:54:50;;;;;;;6.90;2.22;;;3.50;99.90;;;;;;4965597;28;20036;-81
2024/01/29 02:57:15;;;;;;;5.47;1.98;;;3.50;99.90;;;;;;4965750;29;20058;-81
2024/01/29 02:59:41;;;;;;;5.18;2.40;;;3.30;99.90;;;;;;4964427;28;20023;-81
2024/01/29 03:02:07;;;;;;;6.68;2.17;;;3.50;99.90;;;;;;4965837;29;20027;-81
2024/01/29 03:04:33;;;;;;;7.03;1.95;;;3.40;99.90;;;;;;4965022;29;20030;-81
2024/01/29 03:06:58;;;;;;;4.57;2.08;;;3.40;99.90;;;;;;4964951;29;20035;-81
2024/01/29 03:09:24;;;;;;;5.70;2.00;;;3.40;99.90;;;;;;4964660;29;20019;-81
2024/01/29 03:11:50;;;;;;;6.05;2.42;;;3.40;99.90;;;;;;4964950;29;20511;-81
2024/01/29 03:14:15;;;;;;;7.50;2.40;;;3.30;99.90;;;;;;4966271;29;20059;-81
2024/01/29 03:16:41;;;;;;;4.90;2.05;;;3.30;99.90;;;;;;4963717;29;20028;-81
2024/01/29 03:19:07;;;;;;;4.55;2.58;;;3.30;99.90;;;;;;4964446;29;20023;-81
2024/01/29 03:21:33;;;;;;;8.63;2.42;;;3.70;99.90;;;;;;4964287;28;20031;-81
2024/01/29 03:23:59;;;;;;;4.28;2.30;;;3.80;99.90;;;;;;4961217;29;20130;-81
2024/01/29 03:26:25;;;;;;;6.03;2.05;;;3.30;99.90;;;;;;4961974;28;20023;-81
2024/01/29 03:28:51;;;;;;;6.97;1.95;;;3.30;99.90;;;;;;4963592;29;20098;-81
2024/01/29 03:31:16;;;;;;;7.30;2.10;;;3.30;99.90;;;;;;4961763;28;20082;-81
2024/01/29 03:33:42;;;;;;;7.70;3.00;;;3.80;99.90;;;;;;4965060;29;20023;-81
2024/01/29 03:36:07;;;;;;;6.00;1.58;;;3.20;99.90;;;;;;4964584;29;20023;-81
2024/01/29 03:38:33;;;;;;;4.05;2.45;;;3.20;99.90;;;;;;4963984;29;20031;-81
2024/01/29 03:41:00;;;;;;;5.38;2.00;;;3.00;99.90;;;;;;4962348;29;20058;-81
2024/01/29 03:43:26;;;;;;;5.47;1.95;;;3.00;99.90;;;;;;4963042;29;20091;-81
2024/01/29 03:45:54;;;;;;;5.93;2.33;;;2.90;99.90;;;;;;4961590;28;20050;-81
2024/01/29 03:48:21;;;;;;;4.15;1.98;;;2.90;99.90;;;;;;4962884;29;20037;-81
2024/01/29 03:50:47;;;;;;;6.15;2.15;;;2.80;99.90;;;;;;4962597;29;20120;-80
2024/01/29 03:53:12;;;;;;;7.55;2.03;;;2.80;99.90;;;;;;4962457;29;20031;-80
2024/01/29 03:55:38;;;;;;;8.23;2.60;;;2.70;99.90;;;;;;4963302;29;20041;-82
2024/01/29 03:58:03;;;;;;;6.60;2.17;;;2.70;99.90;;;;;;4962904;28;20077;-80
2024/01/29 04:00:32;;;;;;;6.82;2.33;;;2.70;99.90;;;;;;4962407;29;20031;-80
2024/01/29 04:02:58;;;;;;;5.32;2.10;;;2.70;99.90;;;;;;4961537;29;20491;-80
2024/01/29 04:05:24;;;;;;;8.05;3.00;;;2.70;99.90;;;;;;4963863;29;20055;-80
2024/01/29 04:07:51;;;;;;;5.50;1.90;;;2.70;99.90;;;;;;4962603;29;20059;-80
2024/01/29 04:10:17;;;;;;;4.88;1.98;;;2.70;99.90;;;;;;4963798;29;20015;-80
2024/01/29 04:12:43;;;;;;;7.00;2.45;;;4.70;99.90;;;;;;4962583;29;20534;-80
2024/01/29 04:15:09;;;;;;;6.40;2.20;;;;;;;;;;4962462;28;20030;-80
2024/01/29 04:17:36;;;;;;;5.95;2.10;;;2.80;99.90;;;;;;4964044;28;20028;-80
2024/01/29 04:20:02;;;;;;;6.47;2.08;;;;;;;;;;4963521;29;20024;-80
2024/01/29 04:22:28;;;;;;;7.90;2.33;;;2.90;99.90;;;;;;4961833;29;20057;-80
2024/01/29 04:24:54;;;;;;;5.05;2.45;;;5.20;99.90;;;;;;4962722;29;20475;-80
2024/01/29 04:27:19;;;;;;;7.72;2.42;;;2.90;99.90;;;;;;4962187;29;20509;-81
2024/01/29 04:29:45;;;;;;;8.15;2.65;;;;;;;;;;4962962;29;20015;-80
2024/01/29 04:32:11;;;;;;;6.40;2.17;;;3.00;99.90;;;;;;4963319;29;20023;-80
2024/01/29 04:34:37;;;;;;;7.28;2.00;;;3.00;99.90;;;;;;4963631;29;20027;-80
2024/01/29 04:37:03;;;;;;;6.65;2.60;;;3.00;99.90;;;;;;4961848;29;20054;-80
2024/01/29 04:39:29;;;;;;;5.57;2.22;;;3.00;99.90;;;;;;4962925;29;20027;-80
2024/01/29 04:41:54;;;;;;;6.43;1.90;;;3.10;99.90;;;;;;4963264;29;20031;-80
2024/01/29 04:44:20;;;;;;;6.57;1.95;;;3.00;99.90;;;;;;4962771;29;20395;-80
2024/01/29 04:46:46;;;;;;;6.53;2.45;;;3.10;99.90;;;;;;4964175;29;20023;-80
2024/01/29 04:49:11;;;;;;;6.43;1.67;;;3.10;99.90;;;;;;4963353;29;20015;-80
2024/01/29 04:51:37;;;;;;;7.10;1.77;;;3.10;99.90;;;;;;4962835;28;20024;-79
2024/01/29 04:54:04;;;;;;;6.20;2.20;;;;;;;;;;4962552;28;20083;-80
2024/01/29 04:56:30;;;;;;;4.57;1.90;;;3.20;99.90;;;;;;4963411;28;20087;-81
2024/01/29 04:58:55;;;;;;;3.95;1.65;;;3.10;99.90;;;;;;4965813;29;20518;-80
2024/01/29 05:01:21;;;;;;;7.18;2.20;;;3.20;99.90;;;;;;4966983;29;20027;-80
2024/01/29 05:03:47;;;;;;;7.82;2.42;;;5.60;99.90;;;;;;4965398;29;20086;-80
2024/01/29 05:06:13;;;;;;;4.65;2.35;;;3.20;99.90;;;;;;4967112;28;20043;-81
2024/01/29 05:08:39;;;;;;;4.95;2.03;;;3.10;99.90;;;;;;4967069;29;20062;-80
2024/01/29 05:11:05;;;;;;;6.43;2.42;;;3.20;99.90;;;;;;4965388;29;20030;-80
2024/01/29 05:13:31;;;;;;;7.03;2.47;;;3.20;99.90;;;;;;4966005;29;20086;-80
2024/01/29 05:15:57;;;;;;;8.48;2.78;;;3.20;99.90;;;;;;4966918;29;20110;-81
2024/01/29 05:18:22;;;;;;;6.47;1.90;;;3.20;99.90;;;;;;4964437;28;20020;-79
2024/01/29 05:20:48;;;;;;;8.10;2.45;;;3.40;99.90;;;;;;4964804;29;20023;-79
2024/01/29 05:23:13;;;;;;;8.60;2.30;;;3.20;99.90;;;;;;4965263;28;20011;-79
2024/01/29 05:25:39;;;;;;;7.63;2.10;;;3.10;99.90;;;;;;4964662;29;20019;-80
2024/01/29 05:28:05;;;;;;;4.68;2.20;;;3.10;99.90;;;;;;4965610;29;20023;-81
2024/01/29 05:30:31;;;;;;;5.68;2.30;;;3.20;99.90;;;;;;4966210;29;20061;-80
2024/01/29 05:32:56;;;;;;;5.43;2.22;;;3.10;99.90;;;;;;4963959;29;20016;-80
2024/01/29 05:35:23;;;;;;;6.10;2.38;;;3.10;99.90;;;;;;4963303;28;20027;-80
2024/01/29 05:37:48;;;;;;;6.22;1.63;;;;;;;;;;4962508;28;20034;-80
2024/01/29 05:40:14;;;;;;;6.82;3.63;;;3.10;99.90;;;;;;4963721;29;20031;-80
2024/01/29 05:42:40;;;;;;;5.05;2.25;;;3.10;99.90;;;;;;4964403;29;20024;-80
2024/01/29 05:45:06;;;;;;;9.27;2.30;;;3.20;99.90;;;;;;4964591;29;20035;-80
2024/01/29 05:47:33;;;;;;;6.28;2.53;;;3.20;99.90;;;;;;4966904;29;20395;-80
2024/01/29 05:49:59;;;;;;;4.82;2.08;;;6.10;99.90;;;;;;4966044;29;20031;-80
2024/01/29 05:52:25;;;;;;;5.85;2.22;;;3.20;99.90;;;;;;4965827;29;20024;-80
2024/01/29 05:54:50;;;;;;;6.25;2.50;;;3.20;99.90;;;;;;4965061;29;20035;-80
2024/01/29 05:57:20;;;;;;;7.55;2.53;;;;;;;;;;4966245;29;20041;-80
2024/01/29 05:59:46;;;;;;;5.57;2.25;;;3.20;99.90;;;;;;4966100;29;20118;-80
2024/01/29 06:02:11;;;;;;;5.45;2.25;;;3.20;99.90;;;;;;4965429;29;20514;-80
2024/01/29 06:04:37;;;;;;;5.03;2.13;;;3.30;99.90;;;;;;4964936;29;20399;-80
2024/01/29 06:07:03;;;;;;;7.70;2.33;;;3.20;99.90;;;;;;4966417;29;20022;-81
2024/01/29 06:09:29;;;;;;;6.63;2.33;;;3.20;99.90;;;;;;4963569;28;20023;-81
2024/01/29 06:11:54;;;;;;;6.65;2.35;;;3.20;99.90;;;;;;4962474;29;20026;-79
2024/01/29 06:14:20;;;;;;;7.38;2.17;;;3.20;99.90;;;;;;4968297;29;20139;-80
2024/01/29 06:16:46;;;;;;;3.72;1.75;;;3.20;99.90;;;;;;4966588;29;20106;-81
2024/01/29 06:19:17;;;;;;;7.55;3.15;;;3.10;99.90;;;;;;4964654;28;20065;-81
2024/01/29 06:21:44;;;;;;;7.75;2.63;;;;;;;;;;4968380;29;20042;-81
2024/01/29 06:24:09;;;;;;;4.85;2.40;;;3.10;99.90;;;;;;4967088;29;20031;-81
2024/01/29 06:30:51;;;;;;;5.53;2.55;;;3.20;99.90;;;;;;4924338;29;20044;-79
2024/01/29 06:37:54;;;;;;;2.47;1.33;;;3.20;99.90;;;;;;4903500;29;20031;-79
2024/01/29 06:40:27;;;;;;;3.78;1.65;;;3.20;99.90;;;;;;4782168;29;20046;-79
2024/01/29 06:46:59;;;;;;;6.90;2.58;;;3.10;99.90;;;;;;4902429;29;20048;-81
2024/01/29 06:50:19;;;;;;;6.45;2.55;;;3.10;99.90;;;;;;4873431;29;20092;-80
2024/01/29 07:13:17;;;;;;;5.25;2.75;;;3.00;99.90;;;;;;4902906;29;20044;-80
2024/01/29 07:15:54;;;;;;;9.57;3.47;;;2.90;99.90;;;;;;4901069;29;20025;-81
2024/01/29 07:18:48;;;;;;;5.82;1.67;;;2.90;99.90;;;;;;4970649;28;20056;-81
2024/01/29 07:21:19;;;;;;;7.07;2.80;;;2.90;99.90;;;;;;4981108;28;20007;-80
2024/01/29 07:27:08;;;;;;;9.27;2.90;;;;;;;;;;4973661;28;20041;-81
2024/01/29 07:29:34;;;;;;;5.00;2.38;;;2.90;99.90;;;;;;4964592;29;20475;-81
2024/01/29 07:31:59;;;;;;;6.68;2.67;;;2.90;99.90;;;;;;4965411;29;20045;-81
2024/01/29 07:34:25;;;;;;;6.50;2.47;;;2.90;99.90;;;;;;4964992;29;20056;-81
2024/01/29 07:36:50;;;;;;;6.57;2.78;;;2.90;99.90;;;;;;4964223;29;20015;-82
2024/01/29 07:39:16;;;;;;;9.38;2.50;;;2.90;99.90;;;;;;4964609;29;20035;-81
2024/01/29 07:41:42;;;;;;;9.98;2.95;;;2.90;99.90;;;;;;4964477;28;20114;-80
2024/01/29 07:44:08;;;;;;;7.05;2.42;;;2.90;99.90;;;;;;4964238;29;20035;-80
2024/01/29 07:46:34;;;;;;;9.63;3.00;;;2.90;99.90;;;;;;4965178;28;20031;-81
2024/01/29 07:49:02;;;;;;;6.30;2.42;;;2.90;99.90;;;;;;4964721;29;20121;-81
2024/01/29 07:51:28;;;;;;;6.53;2.58;;;;;;;;;;4966214;29;20038;-81
2024/01/29 07:53:54;;;;;;;10.23;3.35;;;3.00;99.90;;;;;;4964337;29;20027;-81
2024/01/29 07:56:19;;;;;;;10.38;2.80;;;3.00;99.90;;;;;;4963925;29;20442;-82
2024/01/29 07:58:45;;;;;;;10.13;2.55;;;;;;;;;;4964253;29;20188;-81
2024/01/29 08:01:11;;;;;;;7.22;2.42;;;3.10;99.90;;;;;;4964143;29;20031;-81
2024/01/29 08:03:37;;;;;;;7.00;3.15;;;3.10;99.90;;;;;;4963473;29;20024;-81
2024/01/29 08:06:03;;;;;;;10.00;3.13;;;3.20;99.90;;;;;;4964071;29;20047;-80
2024/01/29 08:08:29;;;;;;;7.70;2.95;;;3.20;99.90;;;;;;4962120;29;20015;-80
2024/01/29 08:10:59;;;;;;;8.13;2.92;;;3.20;99.90;;;;;;4963703;29;20012;-80
2024/01/29 08:13:25;;;;;;;8.32;3.08;;;;;;;;;;4971167;28;20036;-80
2024/01/29 08:15:52;;;;;;;6.70;2.25;;;3.40;99.90;;;;;;4971769;28;20031;-80
2024/01/29 08:18:18;;;;;;;8.00;3.15;;;;;;;;;;4971373;28;20090;-81
2024/01/29 08:20:44;;;;;;;8.32;1.98;;;3.40;99.90;;;;;;4971253;29;20038;-81
2024/01/29 08:23:12;;;;;;;6.65;2.85;;;3.30;99.90;;;;;;4970838;29;20031;-80
2024/01/29 08:25:38;;;;;;;7.65;2.55;;;3.60;99.90;;;;;;4971986;29;20463;-80
2024/01/29 08:28:05;;;;;;;5.47;2.45;;;3.60;99.90;;;;;;4973093;29;20027;-80
2024/01/29 08:30:31;;;;;;;11.07;3.08;;;;;;;;;;4971471;29;20031;-80
2024/01/29 08:32:57;;;;;;;8.10;2.60;;;;;;;;;;4969725;28;20031;-81
2024/01/29 08:35:23;;;;;;;7.32;3.13;;;;;;;;;;4976628;29;20034;-80
2024/01/29 08:37:50;;;;;;;7.35;2.80;;;3.80;99.90;;;;;;4977764;29;20038;-80
2024/01/29 08:40:19;;;;;;;6.80;2.47;;;3.90;99.90;;;;;;4976845;28;20019;-80
2024/01/29 08:42:45;;;;;;;11.10;3.13;;;3.80;99.90;;;;;;4965270;29;20055;-79
2024/01/29 08:45:15;;;;;;;5.95;2.38;;;3.90;99.90;;;;;;4962905;28;20034;-79
2024/01/29 08:47:41;;;;;;;5.30;2.67;;;4.00;99.90;;;;;;4964182;29;20526;-79
2024/01/29 08:50:07;;;;;;;8.50;2.95;;;4.00;99.90;;;;;;4962637;28;20015;-79
2024/01/29 08:52:32;;;;;;;10.48;2.63;;;4.00;99.90;;;;;;4962625;28;20051;-79
2024/01/29 08:54:58;;;;;;;7.80;3.72;;;4.10;99.90;;;;;;4963677;28;20502;-79
2024/01/29 08:57:24;;;;;;;8.15;3.42;;;4.20;99.90;;;;;;4962947;28;20031;-79
2024/01/29 08:59:49;;;;;;;6.03;3.00;;;5.00;99.90;;;;;;4964884;29;20110;-79
2024/01/29 09:02:15;;;;;;;9.82;2.97;;;4.30;99.90;;;;;;4962827;29;20051;-78
2024/01/29 09:04:41;;;;;;;8.25;3.13;;;4.30;99.90;;;;;;4963325;29;20069;-78
2024/01/29 09:07:07;;;;;;;8.73;2.97;;;4.40;99.90;;;;;;4966326;29;20045;-79
2024/01/29 09:09:32;;;;;;;8.13;3.25;;;4.50;99.90;;;;;;4964605;29;20030;-78
2024/01/29 09:11:58;;;;;;;8.75;2.47;;;4.60;99.90;;;;;;4965075;28;20072;-78
2024/01/29 09:14:24;;;;;;;8.18;3.05;;;4.60;99.90;;;;;;4962202;28;20118;-78
2024/01/29 09:16:50;;;;;;;8.38;2.72;;;4.80;99.90;;;;;;4963203;29;20059;-78
2024/01/29 09:19:16;;;;;;;8.15;3.10;;;4.80;99.90;;;;;;4964045;29;20047;-78
2024/01/29 09:21:50;;;;;;;4.72;2.60;;;4.90;99.90;;;;;;4965184;29;20467;-77
2024/01/29 09:24:17;;;;;;;8.98;3.45;;;4.90;99.90;;;;;;4962151;29;20031;-76
2024/01/29 09:26:42;;;;;;;7.72;3.15;;;5.00;99.90;;;;;;4963503;28;20020;-77
2024/01/29 09:29:08;;;;;;;10.60;3.13;;;5.10;99.90;;;;;;4965098;29;20031;-77
2024/01/29 09:31:34;;;;;;;11.63;3.00;;;5.20;99.90;;;;;;4965235;29;20361;-77
2024/01/29 09:34:00;;;;;;;11.63;2.78;;;5.20;99.90;;;;;;4964631;29;20035;-76
2024/01/29 09:36:26;;;;;;;7.78;3.20;;;5.30;99.90;;;;;;4964875;28;20032;-77
2024/01/29 09:38:51;;;;;;;6.22;2.72;;;5.40;99.90;;;;;;4963716;29;20027;-77
2024/01/29 09:41:17;;;;;;;9.68;3.47;;;5.40;99.90;;;;;;4962707;29;20164;-77
2024/01/29 09:43:46;;;;;;;5.47;2.83;;;5.50;99.90;;;;;;4959857;28;20027;-77
2024/01/29 09:46:14;;;;;;;8.65;2.92;;;;;;;;;;4959798;29;20026;-78
2024/01/29 09:48:42;;;;;;;7.28;3.53;;;5.50;99.90;;;;;;4960173;29;20050;-77
2024/01/29 09:51:13;;;;;;;9.27;2.92;;;6.50;99.90;;;;;;4959742;29;20027;-77
2024/01/29 09:53:39;;;;;;;8.65;3.30;;;5.70;99.90;;;;;;4958622;29;20051;-77
2024/01/29 09:56:05;;;;;;;6.40;2.85;;;5.70;99.90;;;;;;4960191;29;20046;-77
2024/01/29 09:58:32;;;;;;;6.32;3.30;;;5.80;99.90;;;;;;4958060;29;20024;-77
2024/01/29 10:01:00;;;;;;;10.38;3.58;;;5.80;99.90;;;;;;4958848;28;20096;-78
2024/01/29 10:03:30;;;;;;;7.38;3.22;;;5.80;99.90;;;;;;4957809;29;20102;-77
2024/01/29 10:05:57;;;;;;;7.93;3.58;;;5.80;99.90;;;;;;4960324;29;20035;-78
2024/01/29 10:08:27;;;;;;;8.45;3.50;;;5.90;99.90;;;;;;4959946;29;20019;-78
2024/01/29 10:10:54;;;;;;;9.02;2.90;;;6.20;99.90;;;;;;4958967;29;20027;-77
2024/01/29 10:13:20;;;;;;;9.05;3.55;;;6.50;99.90;;;;;;4960287;29;20027;-78
2024/01/29 10:15:45;;;;;;;14.25;5.05;;;6.40;99.90;;;;;;4958597;29;20082;-76
2024/01/29 10:18:12;;;;;;;8.05;3.47;;;6.60;99.90;;;;;;4958550;29;20038;-79
2024/01/29 10:20:38;;;;;;;7.15;3.30;;;6.70;99.90;;;;;;4957247;29;20027;-77
2024/01/29 10:23:04;;;;;;;8.77;3.53;;;6.90;99.90;;;;;;4957462;29;20038;-78
2024/01/29 10:25:32;;;;;;;10.05;4.28;;;7.00;99.90;;;;;;4957216;29;20027;-78
2024/01/29 10:28:26;;;;;;;11.00;3.53;;;7.00;99.90;;;;;;4956862;28;20020;-77
2024/01/29 10:30:53;;;;;;;11.75;4.22;;;7.20;99.90;;;;;;4955125;29;20372;-77
2024/01/29 10:33:18;;;;;;;9.13;3.92;;;7.50;99.90;;;;;;4958162;29;20015;-77
2024/01/29 10:35:44;;;;;;;8.65;3.75;;;7.60;99.90;;;;;;4956962;29;20089;-77
2024/01/29 10:38:13;;;;;;;7.60;3.80;;;7.70;99.90;;;;;;4958902;29;20031;-77
2024/01/29 10:40:41;;;;;;;8.50;3.72;;;7.80;99.90;;;;;;4958546;29;20030;-77
2024/01/29 10:43:15;;;;;;;13.23;4.05;;;8.00;99.90;;;;;;4957224;29;20103;-77
2024/01/29 10:45:44;;;;;;;8.20;4.07;;;8.10;99.90;;;;;;4958251;29;20031;-77
2024/01/29 10:48:15;;;;;;;;;;;8.20;99.90;;;;;;4958256;29;20039;-77
2024/01/29 10:50:42;;;;;;;10.13;4.13;;;8.30;99.90;;;;;;4959220;29;20393;-77
2024/01/29 10:53:11;;;;;;;11.27;5.07;;;8.40;99.90;;;;;;4958360;29;20023;-77
2024/01/29 10:55:37;;;;;;;7.93;3.63;;;8.60;99.90;;;;;;4959314;28;20090;-78
2024/01/29 10:58:04;;;;;;;9.52;3.83;;;8.60;99.90;;;;;;4959474;29;20534;-77
2024/01/29 11:00:31;;;;;;;9.98;3.38;;;8.70;99.90;;;;;;4957503;29;20525;-77
2024/01/29 11:02:58;;;;;;;12.95;4.15;;;8.80;99.90;;;;;;4957814;29;20026;-77
2024/01/29 11:05:25;;;;;;;10.18;4.72;;;8.90;99.90;;;;;;4957649;29;20027;-78
2024/01/29 11:07:53;;;;;;;12.77;4.35;;;9.00;99.90;;;;;;4957055;29;20123;-78
2024/01/29 11:10:22;;;;;;;12.77;4.60;;;9.10;99.90;;;;;;4957319;29;20395;-77
2024/01/29 11:12:53;;;;;;;8.50;3.65;;;9.10;99.90;;;;;;4957490;29;20110;-78
2024/01/29 11:15:19;;;;;;;10.38;4.25;;;9.10;99.90;;;;;;4957455;29;20111;-77
2024/01/29 11:17:45;;;;;;;11.00;4.15;;;9.20;99.90;;;;;;4956344;29;20031;-78
2024/01/29 11:20:12;;;;;;;13.68;4.93;;;9.30;99.90;;;;;;4956700;29;20077;-78
2024/01/29 11:22:39;;;;;;;11.02;4.50;;;9.40;99.90;;;;;;4957326;29;20403;-78
2024/01/29 11:25:12;;;;;;;10.02;4.82;;;9.50;99.90;;;;;;4956552;29;20051;-77
2024/01/29 11:27:39;;;;;;;9.48;4.38;;;9.50;99.90;;;;;;4957774;29;20114;-78
2024/01/29 11:30:21;;;;;;;10.13;5.18;;;9.60;99.90;;;;;;4957139;29;20019;-78
2024/01/29 11:32:48;;;;;;;8.85;4.47;;;9.70;99.90;;;;;;4958358;29;20118;-77
2024/01/29 11:35:17;;;;;;;11.25;4.18;;;9.70;99.90;;;;;;4958094;29;20516;-78
2024/01/29 11:37:43;;;;;;;10.20;4.32;;;9.80;99.90;;;;;;4957210;29;20038;-78
2024/01/29 11:40:33;;;;;;;12.50;4.45;;;9.90;99.90;;;;;;4956035;29;20019;-78
2024/01/29 11:43:04;;;;;;;11.23;4.57;;;9.80;99.90;;;;;;4956568;29;20027;-77
2024/01/29 11:45:30;;;;;;;10.95;5.05;;;10.20;99.90;;;;;;4956666;29;20027;-78
2024/01/29 11:47:56;;;;;;;10.25;4.10;;;10.10;99.90;;;;;;4956389;28;20027;-78
2024/01/29 11:50:24;;;;;;;12.00;5.32;;;10.30;99.90;;;;;;4957378;29;20019;-75
2024/01/29 11:52:50;;;;;;;9.43;4.75;;;10.30;99.90;;;;;;4956669;29;20094;-78
2024/01/29 11:55:21;;;;;;;13.00;4.68;;;10.40;99.90;;;;;;4958887;29;20451;-79
2024/01/29 11:57:47;;;;;;;12.85;4.80;;;10.40;99.90;;;;;;4958135;29;20023;-78
2024/01/29 12:00:20;;;;;;;10.10;4.72;;;10.50;99.90;;;;;;4957658;29;20035;-76
2024/01/29 12:02:48;;;;;;;14.57;5.47;;;10.50;99.90;;;;;;4956686;29;20027;-76
2024/01/29 12:05:16;;;;;;;9.77;5.35;;;10.60;99.90;;;;;;4956886;29;20027;-76
2024/01/29 12:07:42;;;;;;;12.02;5.15;;;10.70;99.90;;;;;;4957084;28;20024;-76
2024/01/29 12:10:09;;;;;;;13.85;4.80;;;10.80;99.90;;;;;;4957763;29;20031;-76
2024/01/29 12:12:34;;;;;;;11.98;4.70;;;10.80;99.90;;;;;;4956499;29;20081;-76
2024/01/29 12:15:00;;;;;;;10.45;3.78;;;10.90;99.90;;;;;;4957209;29;20126;-76
2024/01/29 12:17:27;;;;;;;11.68;5.40;;;11.00;99.90;;;;;;4957173;29;20429;-77
2024/01/29 12:19:53;;;;;;;13.80;4.47;;;10.90;99.90;;;;;;4957006;29;20025;-77
2024/01/29 12:22:19;;;;;;;16.25;5.97;;;11.20;99.90;;;;;;4957297;29;20382;-77
2024/01/29 12:24:45;;;;;;;9.90;4.43;;;11.20;99.90;;;;;;4956649;29;20487;-77
2024/01/29 12:27:12;;;;;;;8.68;4.22;;;11.40;99.90;;;;;;4955957;29;20086;-77
2024/01/29 12:29:38;;;;;;;12.85;4.72;;;11.50;99.90;;;;;;4955791;29;20537;-76
2024/01/29 12:32:08;;;;;;;12.45;4.80;;;11.50;99.90;;;;;;4956731;29;20422;-77
2024/01/29 12:34:42;;;;;;;14.45;5.03;;;11.70;99.90;;;;;;4956938;29;20031;-78
2024/01/29 12:37:21;;;;;;;9.00;4.97;;;11.90;99.90;;;;;;4955867;29;20026;-78
2024/01/29 12:39:54;;;;;;;11.90;5.07;;;12.00;99.90;;;;;;4955054;29;20038;-78
2024/01/29 12:42:21;;;;;;;10.38;4.85;;;12.10;99.90;;;;;;4955915;29;20403;-78
2024/01/29 12:44:48;;;;;;;12.88;3.95;;;12.10;99.90;;;;;;4955486;29;20098;-78
2024/01/29 12:47:20;;;;;;;21.05;4.53;;;;;;;;;;4956413;29;20387;-78
2024/01/29 12:49:47;;;;;;;10.75;4.65;;;12.20;99.90;;;;;;4956449;29;20027;-78
2024/01/29 12:52:14;;;;;;;12.20;4.32;;;12.40;99.90;;;;;;4955544;29;20019;-78
2024/01/29 12:54:45;;;;;;;9.15;4.38;;;12.40;99.90;;;;;;4955581;28;20079;-78
2024/01/29 12:57:10;;;;;;;9.25;3.92;;;12.60;99.90;;;;;;4957182;29;20032;-78
2024/01/29 12:59:37;;;;;;;9.18;3.78;;;12.80;99.90;;;;;;4956239;28;20038;-78
2024/01/29 13:02:02;;;;;;;9.52;4.10;;;12.80;99.90;;;;;;4956706;28;20117;-78
2024/01/29 13:04:28;;;;;;;8.40;3.95;;;12.90;99.90;;;;;;4956817;29;20071;-79
2024/01/29 13:06:54;;;;;;;7.68;3.67;;;13.00;99.90;;;;;;4956274;29;20019;-78
2024/01/29 13:09:20;;;;;;;9.57;3.90;;;13.00;99.90;;;;;;4955670;29;20030;-78
2024/01/29 13:11:48;;;;;;;8.73;3.83;;;12.90;99.90;;;;;;4955132;29;20118;-79
2024/01/29 13:14:13;;;;;;;10.25;4.05;;;12.80;99.90;;;;;;4956349;29;20035;-78
2024/01/29 13:16:39;;;;;;;8.13;3.70;;;12.80;99.90;;;;;;4956342;29;20543;-78
2024/01/29 13:19:05;;;;;;;12.75;4.03;;;12.80;99.90;;;;;;4958187;28;20440;-78
2024/01/29 13:21:31;;;;;;;8.50;4.15;;;12.80;99.90;;;;;;4960090;29;20066;-78
2024/01/29 13:24:00;;;;;;;8.50;4.20;;;12.80;99.90;;;;;;4959669;29;20066;-78
2024/01/29 13:26:29;;;;;;;11.38;4.18;;;12.70;99.90;;;;;;4960598;29;20054;-79
2024/01/29 13:28:55;;;;;;;6.70;3.25;;;12.70;99.90;;;;;;4960494;29;20500;-78
2024/01/29 13:31:21;;;;;;;11.93;4.25;;;12.80;99.90;;;;;;4960751;28;20023;-78
2024/01/29 13:33:47;;;;;;;10.18;4.00;;;13.00;99.90;;;;;;4960613;29;20024;-78
2024/01/29 13:36:13;;;;;;;11.68;4.22;;;13.00;99.90;;;;;;4960580;29;20032;-79